Malaysia Virtual Airlines Airport Information Service

Denpasar / Ngurah-Rai

ICAO: WADD Country: Indonesia
Latitude: -8.75 Longitude: 115.167
Latest Arrival : OD157A (WMKK-WADD) Latest Departure : MHJUMP (WADD-WMKK)


WX CaptureLIVE
Data provided by noaa.gov | Fetched at 07:54:51

METAR : WADD 160730Z 16008KT 9999 FEW017 31/26 Q1009 NOSIG

TAF : WADD 160500Z 1606/1706 13010KT 9999 SCT016 BECMG 1616/1618 VRB05KT


Runway Data for WADD
Data provided by openaviationdata.com

Runway ID Mag Var Hdg Length Elevation Surface ILS Freq ILS Id ILS Slope
9 1 86° 9829 ft 14 ft Asphalt -- -- --
27 1 266° 9829 ft 14 ft Asphalt 110.3 IDPS 3

Denpasar / Ngurah-Rai, Indonesia
Use only for reference purposes



Not for navigational purposes.